Valle Toledo, Valles Caldera, New Mexico Weather observations

Data are for 10 minute period ending at time listed.
 Day   Time   Solar   Ave.   Ave.  Ave.  Vector  Max.   Baro.   Total    
  of    of     Rad.   Air    Rel.  Wind   Wind   Wind  Press.  Precip.   
Year   Day            Temp.  Hum.  Speed  Dir.   Gust                    
2026   (MST)  Kw/m2    F      %     mph   deg.    mph    mb.     in.     
-------------------------------------------------------------------------
 244   13:30   0.74   66.1    48    9.2   340    16.7   737.4    0.00 
 244   13:40   0.52   64.7    52    9.2   330    13.7   737.4    0.00 
 244   13:50   0.34   63.0    56    7.1   325    14.9   737.4    0.00 
 244   14:00   0.43   62.2    60    7.8   330    13.1   737.4    0.00 
 244   14:10   0.44   62.7    58    5.2   320     8.4   737.3    0.00 
 244   14:20   0.40   64.3    52    3.6   331     8.4   737.1    0.00 
 244   14:30   0.27   64.4    48    4.5   352     9.0   737.1    0.00 
 244   14:40   0.50   65.6    48    3.8    48     7.8   736.9    0.00 
 244   14:50   0.23   65.7    48    2.4   157     8.4   736.9    0.00 
 244   15:00   0.39   64.9    46    0.0     0     0.0   736.8    0.00 
 244   15:10   0.23   64.9    45    0.0     0     0.0   736.7    0.00 
 244   15:20   0.44   66.1    44    0.0     0     0.0   736.7    0.00 
 244   15:30   0.18   65.8    45    0.0     0     0.0   736.6    0.00 
 244   15:40   0.22   65.2    47    0.0     0     0.0   736.3    0.00 
 244   15:50   0.23   65.4    46    0.0     0     0.0   736.3    0.00 
 244   16:00   0.46   67.4    43    1.8   324     8.4   736.1    0.00 
 244   16:10   0.29   67.7    41    0.9    43    10.2   736.1    0.00 
 244   16:20   0.11   65.7    43    0.0     0     0.0   736.1    0.00 
 244   16:30   0.06   64.8    46    0.1    98    14.9   736.3    0.00 
 244   16:40   0.04   61.5    56    4.6   106    18.5   736.8    0.01 
 244   16:50   0.06   57.3    74    0.7   128     6.6   737.1    0.03 
 244   17:00   0.07   55.9    80    0.0     0     0.0   737.0    0.01 
 244   17:10   0.20   56.3    80    0.0     0     0.0   737.0    0.00 
 244   17:20   0.34   59.8    75    0.0     0     0.0   736.8    0.00 
 244   17:30   0.23   63.3    65    0.0     0     0.0   736.7    0.00 
 244   17:40   0.20   63.5    63    0.0     0     0.0   736.4    0.00 
 244   17:50   0.15   64.9    62    0.0     0     0.0   736.3    0.00 
 244   18:00   0.12   67.3    54    0.0     0     0.0   736.3    0.00 
 244   18:10   0.08   66.6    54    0.0     0     0.0   736.3    0.00 
 244   18:20   0.05   63.9    59    0.0     0     0.0   736.4    0.00 
 244   18:30   0.01   59.5    68    0.0     0     0.0   736.4    0.00 
 244   18:40   0.00   56.8    71    0.0     0     0.0   736.6    0.00 
 244   18:50   0.00   55.3    74    0.0     0     0.0   736.7    0.00 
 244   19:00   0.00   53.8    77    0.0     0     0.0   736.8    0.00 
 244   19:10   0.00   53.5    75    0.0     0     0.0   736.8    0.00 
 244   19:20   0.00   53.3    74    0.0     0     0.0   736.8    0.00 
 244   19:30   0.00   53.0    73    0.0     0     0.0   736.9    0.00 
 244   19:40   0.00   53.1    71    0.0     0     0.0   737.0    0.00 
 244   19:50   0.00   52.6    72    0.0     0     0.0   737.0    0.00 
 244   20:00   0.00   52.5    72    0.0     0     0.0   737.2    0.00 
 244   20:10   0.00   52.4    72    0.0     0     0.0   737.3    0.00 
 244   20:20   0.00   52.3    72    0.0     0     0.0   737.5    0.00 
 244   20:30   0.00   52.5    71    0.0     0     0.0   737.5    0.00 
 244   20:40   0.00   52.7    71    0.0     0     0.0   737.4    0.00 
 244   20:50   0.00   52.1    71    0.0     0     0.0   737.5    0.00 
 244   21:00   0.00   52.1    70    0.0     0     0.0   737.6    0.00 
 244   21:10   0.00   52.8    69    0.0     0     0.0   737.7    0.00 
 244   21:20   0.00   52.6    70    0.0     0     0.0   737.7    0.00 
 244   21:30   0.00   52.2    72    0.0     0     0.0   737.8    0.00 
 244   21:40   0.00   51.9    72    0.0     0     0.0   737.8    0.00 
 244   21:50   0.00   51.7    73    0.0     0     0.0   737.8    0.00 
 244   22:00   0.00   51.9    73    0.0     0     0.0   737.8    0.00 
 244   22:10   0.00   52.3    72    0.0     0     0.0   737.7    0.00 
 244   22:20   0.00   52.9    71    0.0     0     0.0   737.7    0.00 
 244   22:30   0.00   52.8    71    0.0     0     0.0   737.7    0.00 
 244   22:40   0.00   52.3    71    0.0     0     0.0   737.8    0.00 
 244   22:50   0.00   51.9    72    0.0     0     0.0   737.7    0.00 
 244   23:00   0.00   51.7    72    0.0     0     0.0   737.7    0.00 
 244   23:10   0.00   51.3    71    0.0     0     0.0   737.7    0.00 
 244   23:20   0.00   51.1    71    0.0     0     0.0   737.7    0.00 
 244   23:30   0.00   51.0    71    0.0     0     0.0   737.8    0.00 
 244   23:40   0.00   50.5    71    0.0     0     0.0   737.8    0.00 
 244   23:50   0.00   50.0    70    0.0     0     0.0   737.7    0.00 
 245    0:00   0.00   49.9    71    0.0     0     0.0   737.7    0.00 
 245    0:10   0.00   49.7    72    0.0     0     0.0   737.6    0.00 
 245    0:20   0.00   49.7    71    0.0     0     0.0   737.6    0.00 
 245    0:30   0.00   49.5    71    0.0     0     0.0   737.6    0.00 
 245    0:40   0.00   49.5    71    0.0     0     0.0   737.6    0.00 
 245    0:50   0.00   49.2    72    0.0     0     0.0   737.5    0.00 
 245    1:00   0.00   49.4    71    0.0     0     0.0   737.6    0.00 
 245    1:10   0.00   49.1    72    0.0     0     0.0   737.6    0.00 
 245    1:20   0.00   48.7    73    0.0     0     0.0   737.5    0.00 
 245    1:30   0.00   48.8    73    0.0     0     0.0   737.5    0.00 
 245    1:40   0.00   49.1    72    0.0     0     0.0   737.5    0.00 
 245    1:50   0.00   49.0    72    0.0     0     0.0   737.5    0.00 
 245    2:00   0.00   48.9    71    0.0     0     0.0   737.5    0.00 
 245    2:10   0.00   48.5    72    0.0     0     0.0   737.3    0.00 
 245    2:20   0.00   48.4    73    0.0     0     0.0   737.3    0.00 
 245    2:30   0.00   48.3    72    0.0     0     0.0   737.2    0.00 
 245    2:40   0.00   48.3    73    0.0     0     0.0   737.2    0.00 
 245    2:50   0.00   48.2    73    0.0     0     0.0   737.2    0.00 
 245    3:00   0.00   48.5    73    0.0     0     0.0   737.2    0.00 
 245    3:10   0.00   48.7    73    0.0     0     0.0   737.3    0.00 
 245    3:20   0.00   48.6    73    0.0     0     0.0   737.2    0.00 
 245    3:30   0.00   48.5    73    0.0     0     0.0   737.3    0.00 
 245    3:40   0.00   48.2    75    0.0     0     0.0   737.4    0.00 
 245    3:50   0.00   48.1    76    0.0     0     0.0   737.4    0.00 
 245    4:00   0.00   48.2    76    0.0     0     0.0   737.4    0.00 
 245    4:10   0.00   48.0    75    0.0     0     0.0   737.4    0.00 
 245    4:20   0.00   47.5    75    0.0     0     0.0   737.3    0.00 
 245    4:30   0.00   47.2    75    0.0     0     0.0   737.3    0.00 
 245    4:40   0.00   47.0    75    0.0     0     0.0   737.2    0.00 
 245    4:50   0.00   47.1    74    0.0     0     0.0   737.2    0.00 
 245    5:00   0.00   47.1    72    0.0     0     0.0   737.3    0.00 
 245    5:10   0.00   46.8    71    0.0     0     0.0   737.2    0.00 
 245    5:20   0.00   47.5    69    0.0     0     0.0   737.1    0.00 
 245    5:30   0.00   47.4    68    0.0     0     0.0   737.2    0.00 
 245    5:40   0.00   47.6    68    0.0     0     0.0   737.3    0.00 
 245    5:50   0.01   48.3    66    0.0     0     0.0   737.4    0.00 
 245    6:00   0.01   48.8    66    0.0     0     0.0   737.4    0.00 
 245    6:10   0.01   48.7    67    0.0     0     0.0   737.4    0.00 
 245    6:20   0.02   48.9    66    0.0     0     0.0   737.5    0.00 
 245    6:30   0.02   49.2    66    0.0     0     0.0   737.5    0.00 
 245    6:40   0.03   49.5    66    0.0     0     0.0   737.6    0.00 
 245    6:50   0.18   51.6    62    0.0     0     0.0   737.6    0.00 
 245    7:00   0.22   54.2    57    0.0     0     0.0   737.7    0.00 
 245    7:10   0.26   56.2    54    0.0     0     0.0   737.6    0.00 
 245    7:20   0.29   58.6    52    0.0     0     0.0   737.6    0.00 
 245    7:30   0.33   61.1    49    0.0     0     0.0   737.7    0.00 
 245    7:40   0.37   61.2    55    0.0     0     0.0   738.0    0.00 
 245    7:50   0.40   59.8    50    0.0     0     0.0   738.0    0.00 
 245    8:00   0.44   60.9    47    0.0     0     0.0   738.0    0.00 
 245    8:10   0.48   62.1    47    0.0     0     0.0   738.1    0.00 
 245    8:20   0.51   63.1    44    0.0     0     0.0   738.1    0.00 
 245    8:30   0.55   63.2    46    0.0     0     0.0   738.1    0.00 
 245    8:40   0.58   63.3    45    0.0     0     0.0   738.2    0.00 
 245    8:50   0.61   64.0    43    0.0     0     0.0   738.1    0.00 
 245    9:00   0.64   64.5    41    0.0     0     0.0   738.2    0.00 
 245    9:10   0.68   64.9    40    0.0     0     0.0   738.2    0.00 
 245    9:20   0.72   65.2    37    0.0     0     0.0   738.3    0.00 
 245    9:30   0.75   66.1    35    0.0     0     0.0   738.2    0.00 
 245    9:40   0.78   66.1    34    0.0     0     0.0   738.4    0.00 
 245    9:50   0.72   66.9    34    0.0     0     0.0   738.5    0.00 
 245   10:00   0.70   67.1    34    0.0     0     0.0   738.4    0.00 
 245   10:10   0.61   66.0    36    2.9    76     9.0   738.4    0.00 
 245   10:20   0.83   66.5    35    5.2    86    10.8   738.4    0.00 
 245   10:30   0.65   67.3    34    0.0     0     0.0   738.4    0.00 
 245   10:40   0.48   66.9    35    0.0     0     0.0   738.3    0.00 
 245   10:50   0.59   65.8    37    4.0    84     9.6   738.4    0.00 
 245   11:00   0.73   66.8    35    3.2    52     9.0   738.3    0.00 
 245   11:10   0.42   66.4    35    0.0    46     1.2   738.3    0.00 
 245   11:20   0.76   66.8    34    3.3    74    10.2   738.3    0.00 
 245   11:30   0.57   67.6    33    0.0     0     0.0   738.3    0.00 
 245   11:40   0.27   66.0    34    1.3    99    11.3   738.2    0.00 
 245   11:50   1.03   67.9    35    1.1    62     9.6   738.1    0.00 
 245   12:00   0.83   69.5    31    4.4    65    11.3   738.0    0.00 
 245   12:10   0.82   69.2    31    6.2    94    13.1   737.8    0.00 
 245   12:20   0.80   69.1    31    4.4    54    12.5   737.7    0.00 
 245   12:30   0.87   70.5    28    5.7    41    11.9   737.5    0.00 
 245   12:40   0.76   69.2    29    6.4    85    17.3   737.5    0.00 
 245   12:50   0.32   68.3    29    7.3   121    13.1   737.4    0.00 
 245   13:00   0.33   67.1    29    3.6    98    11.3   737.5    0.00 
 245   13:10   0.71   69.3    29    7.5    94    14.3   737.4    0.00 
 245   13:20   0.34   67.8    30    3.5   120    11.3   737.4    0.00 

Return to Valle Toledo, Valles Caldera graphs page.


Western Regional Climate Center,wrcc@dri.edu